Time;durP1;ratioP1;P1;durP2;ratioP2;P2;SDS_P1;SDS_P2;PMS_P1;PMS_P2;Temp;Humidity;BMP_temperature;BMP_pressure;BME280_temperature;BME280_humidity;BME280_pressure;Samples;Min_cycle;Max_cycle;Signal;HPM_P1;HPM_P2
2022/11/13 00:01:19;;;;;;;25.13;20.90;;;5.60;99.90;;;-141.84;87.94;18948.16;5033154;28;20237;-60
2022/11/13 00:03:49;;;;;;;24.07;20.53;;;5.60;99.90;;;-141.84;88.02;18940.03;5032248;28;20230;-59
2022/11/13 00:06:19;;;;;;;22.97;20.50;;;5.50;99.90;;;-141.84;88.03;18946.13;5032677;28;20230;-61
2022/11/13 00:08:47;;;;;;;23.37;20.13;;;5.50;99.90;;;-141.84;87.73;18976.59;5032489;28;20221;-58
2022/11/13 00:11:18;;;;;;;23.07;20.37;;;5.50;99.90;;;-141.84;87.91;18946.13;5031866;28;20256;-60
2022/11/13 00:13:48;;;;;;;23.47;20.97;;;5.50;99.90;;;-141.84;87.95;18911.56;5032803;28;20194;-59
2022/11/13 00:16:19;;;;;;;27.50;20.57;;;5.50;99.90;;;-141.84;88.15;18915.63;5032450;28;20237;-61
2022/11/13 00:18:49;;;;;;;25.20;20.07;;;5.40;99.90;;;-141.84;88.31;18940.03;5032319;28;20222;-59
2022/11/13 00:21:21;;;;;;;24.17;20.93;;;5.40;99.90;;;-141.84;88.20;18948.16;5032328;28;20229;-59
2022/11/13 00:23:49;;;;;;;24.63;20.80;;;5.40;99.90;;;-141.84;88.15;18923.78;5031616;28;20229;-60
2022/11/13 00:26:20;;;;;;;22.27;19.83;;;5.40;99.90;;;-141.84;88.31;18940.03;5031592;28;20213;-60
2022/11/13 00:28:53;;;;;;;23.70;21.10;;;5.30;99.90;;;-141.84;88.34;18944.09;5032032;28;20196;-59
2022/11/13 00:31:21;;;;;;;24.97;20.47;;;5.30;99.90;;;-141.84;87.76;18940.03;5031881;28;20232;-59
2022/11/13 00:33:52;;;;;;;26.17;21.20;;;5.30;99.90;;;-141.84;88.01;18948.16;5032021;28;20225;-59
2022/11/13 00:36:40;;;;;;;27.87;22.20;;;5.30;99.90;;;-141.84;87.52;18940.03;5031945;28;20757;-60
2022/11/13 00:39:09;;;;;;;26.67;21.40;;;5.30;99.90;;;-141.84;87.49;18887.19;5031725;28;20230;-59
2022/11/13 00:41:37;;;;;;;26.40;22.13;;;5.30;99.90;;;-141.84;87.51;18946.13;5030965;28;20230;-59
2022/11/13 00:44:06;;;;;;;23.37;20.83;;;5.30;99.90;;;-141.84;87.74;18923.78;5031929;28;20212;-60
2022/11/13 00:46:34;;;;;;;25.97;22.20;;;5.20;99.90;;;-141.84;87.75;18948.16;5032232;28;20234;-59
2022/11/13 00:49:04;;;;;;;24.83;21.67;;;5.30;99.90;;;-141.84;87.90;18919.69;5043613;28;20225;-59
2022/11/13 00:51:32;;;;;;;26.00;22.37;;;5.20;99.90;;;-141.84;88.11;18931.91;5051910;28;20232;-60
2022/11/13 00:54:00;;;;;;;24.63;22.03;;;5.20;99.90;;;-141.84;87.89;18948.16;5051373;28;20229;-59
2022/11/13 00:56:29;;;;;;;24.80;21.27;;;5.20;99.90;;;-141.84;87.72;18938.00;5041005;28;20675;-59
2022/11/13 00:58:57;;;;;;;27.07;23.07;;;5.20;99.90;;;-141.84;87.79;18948.16;5031923;28;20202;-60
2022/11/13 01:01:25;;;;;;;27.90;23.67;;;5.20;99.90;;;-141.84;87.58;18952.22;5031646;28;20230;-60
2022/11/13 01:03:53;;;;;;;25.90;22.40;;;5.20;99.90;;;-141.84;87.76;18933.94;5031260;28;20598;-61
2022/11/13 01:06:27;;;;;;;26.20;21.70;;;5.20;99.90;;;-141.84;87.87;18911.56;5031856;28;20573;-60
2022/11/13 01:08:58;;;;;;;26.97;23.07;;;5.10;99.90;;;-141.84;88.18;18952.22;5031538;28;20292;-59
2022/11/13 01:11:30;;;;;;;27.80;22.17;;;5.10;99.90;;;-141.84;88.23;18915.63;5031550;28;20232;-59
2022/11/13 01:13:58;;;;;;;25.00;21.73;;;5.10;99.90;;;-141.84;87.99;18907.50;5031792;28;20205;-59
2022/11/13 01:16:28;;;;;;;26.87;22.03;;;5.00;99.90;;;-141.84;87.63;18925.81;5031989;28;20214;-61
2022/11/13 01:18:57;;;;;;;25.90;21.70;;;5.10;99.90;;;-141.84;87.61;18923.78;5047430;28;20225;-58
2022/11/13 01:21:28;;;;;;;27.70;21.70;;;5.00;99.90;;;-141.84;87.65;18935.97;5051434;28;20274;-59
2022/11/13 01:23:56;;;;;;;25.50;22.17;;;5.00;99.90;;;-141.84;87.71;18927.84;5051358;28;20248;-60
2022/11/13 01:26:27;;;;;;;25.20;21.10;;;4.90;99.90;;;-141.84;87.35;18929.88;5051194;28;20236;-60
2022/11/13 01:28:58;;;;;;;26.00;21.77;;;5.00;99.90;;;-141.84;86.67;18895.31;5051969;28;20181;-59
2022/11/13 01:31:30;;;;;;;26.87;22.40;;;5.00;99.90;;;-141.84;86.82;18948.16;5031704;28;20228;-61
2022/11/13 01:33:59;;;;;;;26.70;21.30;;;5.00;99.90;;;-141.84;86.94;18931.91;5031429;28;20253;-61
2022/11/13 01:36:29;;;;;;;26.13;21.63;;;4.90;99.90;;;-141.84;87.24;18905.47;5030930;28;20741;-60
2022/11/13 01:38:57;;;;;;;27.50;21.97;;;4.80;99.90;;;-141.84;87.46;18901.41;5031314;28;20275;-61
2022/11/13 01:41:29;;;;;;;24.80;21.20;;;4.80;99.90;;;-141.84;87.83;18899.38;5031412;28;20233;-60
2022/11/13 01:43:58;;;;;;;25.27;22.03;;;4.80;99.90;;;-141.84;87.83;18899.38;5032025;28;20194;-60
2022/11/13 01:46:30;;;;;;;26.07;22.07;;;4.70;99.90;;;-141.84;88.19;18927.84;5051002;28;20237;-60
2022/11/13 01:49:12;;;;;;;24.67;21.60;;;4.70;99.90;;;-141.84;88.33;18883.13;5051163;28;20229;-60
2022/11/13 01:51:49;;;;;;;26.37;22.63;;;4.70;99.90;;;-141.84;88.40;18889.22;5049123;28;20278;-59
2022/11/13 01:54:22;;;;;;;29.57;23.13;;;4.70;99.90;;;-141.84;88.39;18875.00;5034016;28;20639;-59
2022/11/13 01:56:52;;;;;;;27.07;22.43;;;4.70;99.90;;;-141.84;88.38;18889.22;5034908;28;20233;-61
2022/11/13 01:59:24;;;;;;;25.97;21.93;;;4.70;99.90;;;-141.84;88.08;18913.59;5035255;28;20252;-60
2022/11/13 02:01:52;;;;;;;28.73;22.27;;;4.70;99.90;;;-141.84;88.19;18893.28;5035398;28;20194;-60
2022/11/13 02:04:21;;;;;;;26.17;22.13;;;4.70;99.90;;;-141.84;88.16;18917.66;5035019;28;20740;-58
2022/11/13 02:06:57;;;;;;;29.63;22.63;;;4.70;99.90;;;-141.84;87.92;18915.63;5034693;28;20304;-61
2022/11/13 02:09:30;;;;;;;27.93;23.03;;;4.70;99.90;;;-141.84;88.49;18913.59;5048938;28;20248;-60
2022/11/13 02:11:59;;;;;;;28.93;23.03;;;4.70;99.90;;;-141.84;88.25;18921.75;5054431;28;20228;-59
2022/11/13 02:14:29;;;;;;;26.20;22.37;;;4.70;99.90;;;-141.84;88.31;18891.25;5054745;28;20224;-59
2022/11/13 02:17:02;;;;;;;27.83;22.90;;;4.60;99.90;;;-141.84;88.31;18889.22;5055374;28;20185;-60
2022/11/13 02:19:34;;;;;;;26.33;22.10;;;4.60;99.90;;;-141.84;87.92;18919.69;5055055;28;20209;-60
2022/11/13 02:22:15;;;;;;;28.37;22.43;;;4.60;99.90;;;-141.84;87.86;18879.06;5054386;28;20229;-60
2022/11/13 02:24:47;;;;;;;25.87;22.40;;;4.60;99.90;;;-141.84;87.82;18927.84;5054499;28;20243;-60
2022/11/13 02:27:27;;;;;;;25.17;22.37;;;4.50;99.90;;;-141.84;87.61;18905.47;5054521;28;20221;-59
2022/11/13 02:29:55;;;;;;;27.67;22.90;;;4.60;99.90;;;-141.84;87.53;18911.56;5054167;28;20742;-59
2022/11/13 02:32:24;;;;;;;26.63;21.13;;;4.50;99.90;;;-141.84;87.26;18913.59;5054535;28;20227;-59
2022/11/13 02:34:52;;;;;;;25.03;21.23;;;4.50;99.90;;;-141.84;87.49;18883.13;5054682;28;20212;-59
2022/11/13 02:37:20;;;;;;;26.10;22.50;;;4.50;99.90;;;-141.84;87.74;18883.13;5053679;28;20229;-60
2022/11/13 02:39:50;;;;;;;25.43;21.13;;;4.40;99.90;;;-141.84;87.91;18866.88;5053482;28;20228;-60
2022/11/13 02:42:18;;;;;;;25.97;22.23;;;4.40;99.90;;;-141.84;87.37;18927.84;5053528;28;20231;-60
2022/11/13 02:44:46;;;;;;;24.93;20.83;;;4.50;99.90;;;-141.84;87.07;18909.53;5053840;28;20233;-60
2022/11/13 02:47:14;;;;;;;24.33;20.87;;;4.50;99.90;;;-141.84;87.16;18870.94;5053873;28;20696;-59
2022/11/13 02:49:42;;;;;;;23.83;19.77;;;4.40;99.90;;;-141.84;87.19;18893.28;5037668;28;20205;-61
2022/11/13 02:52:11;;;;;;;25.93;21.10;;;4.40;99.90;;;-141.84;87.03;18866.88;5034118;28;20241;-59
2022/11/13 02:54:39;;;;;;;24.23;19.80;;;4.40;99.90;;;-141.84;86.82;18866.88;5034006;28;20231;-59
2022/11/13 02:57:08;;;;;;;23.97;20.03;;;4.40;99.90;;;-141.84;86.78;18895.31;5033959;28;20236;-59
2022/11/13 02:59:36;;;;;;;23.87;19.67;;;4.40;99.90;;;-141.84;87.03;18883.13;5033808;28;20222;-58
2022/11/13 03:02:05;;;;;;;23.90;20.27;;;4.30;99.90;;;-141.84;87.12;18899.38;5033947;28;20205;-59
2022/11/13 03:04:33;;;;;;;23.70;19.70;;;4.30;99.90;;;-141.84;87.29;18887.19;5033406;28;20206;-59
2022/11/13 03:07:21;;;;;;;24.10;20.00;;;4.30;99.90;;;-141.84;87.64;18879.06;5033515;28;20772;-60
2022/11/13 03:09:49;;;;;;;22.57;18.50;;;4.20;99.90;;;-141.84;87.76;18899.38;5050729;28;20248;-60
2022/11/13 03:12:19;;;;;;;24.27;20.23;;;4.20;99.90;;;-141.84;88.11;18868.91;5053359;28;20247;-58
2022/11/13 03:14:47;;;;;;;22.00;19.63;;;4.10;99.90;;;-141.84;88.41;18887.19;5053548;28;20232;-59
2022/11/13 03:17:15;;;;;;;22.87;19.17;;;4.10;99.90;;;-141.84;88.24;18897.34;5053761;28;20228;-60
2022/11/13 03:19:43;;;;;;;23.93;19.17;;;4.10;99.90;;;-141.84;88.52;18887.19;5053837;28;20259;-58
2022/11/13 03:22:11;;;;;;;24.07;19.00;;;4.00;99.90;;;-141.84;88.55;18842.50;5053243;28;20233;-59
2022/11/13 03:24:39;;;;;;;21.40;18.63;;;4.00;99.90;;;-141.84;87.99;18887.19;5053296;28;20632;-59
2022/11/13 03:27:07;;;;;;;23.80;18.70;;;4.10;99.90;;;-141.84;88.04;18870.94;5053153;28;20244;-60
2022/11/13 03:29:37;;;;;;;21.60;18.30;;;4.00;99.90;;;-141.84;88.27;18875.00;5052896;28;20240;-59
2022/11/13 03:32:06;;;;;;;24.10;19.50;;;4.00;99.90;;;-141.84;88.07;18858.75;5053181;28;20201;-61
2022/11/13 03:34:34;;;;;;;22.23;18.20;;;3.90;99.90;;;-141.84;87.92;18891.25;5053546;28;20212;-59
2022/11/13 03:37:02;;;;;;;23.20;18.03;;;3.90;99.90;;;-141.84;87.55;18875.00;5052850;28;20232;-60
2022/11/13 03:39:30;;;;;;;22.07;17.03;;;3.90;99.90;;;-141.84;87.26;18838.44;5052817;28;20235;-60
2022/11/13 03:41:58;;;;;;;23.23;18.07;;;3.80;99.90;;;-141.84;87.36;18875.00;5052422;28;20245;-59
2022/11/13 03:44:27;;;;;;;22.17;17.40;;;3.70;99.90;;;-141.84;87.37;18905.47;5048823;28;20320;-60
2022/11/13 03:46:56;;;;;;;19.57;16.50;;;3.70;99.90;;;-141.84;86.83;18862.81;5033074;28;20245;-59
2022/11/13 03:49:25;;;;;;;20.67;16.73;;;3.70;99.90;;;-141.84;86.68;18830.31;5047792;28;20225;-58
2022/11/13 03:51:53;;;;;;;18.50;15.43;;;3.80;99.90;;;-141.84;86.74;18828.28;5052499;28;20264;-59
2022/11/13 03:54:21;;;;;;;18.73;16.43;;;3.70;99.90;;;-141.84;86.50;18834.38;5052878;28;20234;-58
2022/11/13 03:56:49;;;;;;;18.97;16.33;;;3.60;99.90;;;-141.84;86.64;18844.53;5052614;28;20220;-59
2022/11/13 03:59:17;;;;;;;19.00;16.33;;;3.50;99.90;;;-141.84;86.77;18846.56;5052809;28;20204;-59
2022/11/13 04:01:45;;;;;;;20.17;14.63;;;3.50;99.90;;;-141.84;86.39;18818.09;5053152;28;20252;-59
2022/11/13 04:04:15;;;;;;;16.40;14.70;;;3.50;99.90;;;-141.84;86.10;18814.03;5052498;28;20225;-59
2022/11/13 04:06:43;;;;;;;15.60;13.63;;;3.50;99.90;;;-141.84;85.67;18840.47;5052518;28;20287;-60
2022/11/13 04:09:12;;;;;;;20.20;13.63;;;3.40;99.90;;;-141.84;85.47;18805.91;5052191;28;20225;-59
2022/11/13 04:11:40;;;;;;;15.43;13.33;;;3.40;99.90;;;-141.84;85.27;18850.63;5052493;28;20231;-59
2022/11/13 04:14:08;;;;;;;16.77;13.77;;;3.30;99.90;;;-141.84;85.51;18842.50;5052054;28;20205;-59
2022/11/13 04:16:37;;;;;;;15.17;13.57;;;3.20;99.90;;;-141.84;85.24;18872.97;5052774;28;20200;-60
2022/11/13 04:19:05;;;;;;;17.53;14.10;;;;;;;-141.84;85.77;18832.34;5051613;28;20230;-59
2022/11/13 04:21:35;;;;;;;15.40;13.10;;;;;;;-141.84;85.42;18852.66;5052158;28;20227;-59
2022/11/13 04:24:04;;;;;;;16.30;13.10;;;;;;;-141.84;84.92;18842.50;5051933;28;20225;-59
2022/11/13 04:26:32;;;;;;;18.57;13.30;;;;;;;-141.84;85.08;18836.41;5052010;28;20235;-59
2022/11/13 04:29:01;;;;;;;15.33;13.20;;;;;;;-141.84;84.55;18848.59;5052553;28;20208;-61
2022/11/13 04:31:29;;;;;;;12.77;11.33;;;;;;;-141.84;84.21;18872.97;5052225;28;20219;-61
2022/11/13 04:33:58;;;;;;;13.30;11.90;;;;;;;-141.84;84.25;18844.53;5051809;28;20239;-62
2022/11/13 04:36:26;;;;;;;15.73;12.87;;;;;;;-141.84;84.71;18832.34;5052281;28;20240;-62
2022/11/13 04:38:56;;;;;;;15.53;12.00;;;;;;;-141.84;84.85;18872.97;5051884;28;20284;-61
2022/11/13 04:44:24;;;;;;;14.27;12.27;;;;;;;-141.84;84.78;18842.50;5009331;28;20717;-62
2022/11/13 04:46:53;;;;;;;13.10;11.00;;;;;;;-141.84;84.49;18852.66;5009892;28;20232;-62
2022/11/13 04:49:22;;;;;;;13.73;11.50;;;;;;;-141.84;84.08;18822.19;5028684;28;20229;-62
2022/11/13 04:51:50;;;;;;;14.33;11.90;;;;;;;-141.84;84.51;18842.50;5051797;28;20275;-62
2022/11/13 04:54:20;;;;;;;12.93;11.53;;;;;;;-141.84;84.15;18820.16;5051520;28;20240;-61
2022/11/13 04:56:55;;;;;;;13.23;11.70;;;;;;;-141.84;84.25;18826.25;5051647;28;20246;-62
2022/11/13 04:59:24;;;;;;;15.37;11.37;;;;;;;-141.84;83.89;18828.28;5051659;28;20232;-62
2022/11/13 05:01:54;;;;;;;12.30;11.00;;;;;;;-141.84;83.93;18838.44;5051533;28;20673;-62
2022/11/13 05:04:23;;;;;;;12.07;10.80;;;;;;;-141.84;84.14;18850.63;5050929;28;20289;-63
2022/11/13 05:06:52;;;;;;;12.70;10.67;;;;;;;-141.84;84.24;18862.81;5050740;28;20238;-61
2022/11/13 05:09:21;;;;;;;15.53;10.90;;;;;;;-141.84;84.49;18814.03;5037836;28;20308;-62
2022/11/13 05:11:50;;;;;;;12.57;10.80;;;;;;;-141.84;84.10;18807.94;5046249;28;20222;-63
2022/11/13 05:14:18;;;;;;;13.60;11.07;;;;;;;-141.84;84.56;18807.94;5051031;28;20697;-62
2022/11/13 05:16:48;;;;;;;13.10;10.83;;;3.20;99.90;;;-141.84;84.05;18844.53;5051945;28;20200;-60
2022/11/13 05:19:17;;;;;;;12.57;10.93;;;2.70;99.90;;;-141.84;83.86;18795.75;5051129;28;20237;-61
2022/11/13 05:21:45;;;;;;;12.23;10.93;;;2.70;99.90;;;-141.84;83.95;18822.19;5051129;28;20222;-62
2022/11/13 05:24:14;;;;;;;13.77;11.50;;;2.70;99.90;;;-141.84;84.39;18830.31;5050878;28;20287;-60
2022/11/13 05:26:43;;;;;;;13.23;11.83;;;2.70;99.90;;;-141.84;84.74;18828.28;5051241;28;20239;-61
2022/11/13 05:29:11;;;;;;;12.93;10.83;;;2.70;99.90;;;-141.84;85.05;18838.44;5053798;28;20197;-61
2022/11/13 05:31:39;;;;;;;13.67;11.53;;;2.70;99.90;;;-141.84;84.78;18818.09;5056030;28;20201;-62
2022/11/13 05:34:08;;;;;;;14.13;11.23;;;2.80;99.90;;;-141.84;85.08;18797.78;5055382;28;20236;-61
2022/11/13 05:36:36;;;;;;;13.17;11.47;;;2.90;99.90;;;-141.84;84.83;18795.75;5055094;28;20233;-62
2022/11/13 05:39:04;;;;;;;13.00;11.27;;;2.90;99.90;;;-141.84;84.42;18842.50;5054713;28;20685;-63
2022/11/13 05:41:33;;;;;;;11.60;10.33;;;2.90;99.90;;;-141.84;83.41;18840.47;5055440;28;20231;-63
2022/11/13 05:44:02;;;;;;;11.33;10.00;;;3.00;99.90;;;-141.84;82.93;18844.53;5055130;28;20357;-61
2022/11/13 05:46:30;;;;;;;12.20;10.23;;;2.80;99.90;;;-141.84;82.65;18830.31;5055298;28;20227;-61
2022/11/13 05:49:01;;;;;;;11.00;9.30;;;2.80;99.90;;;-141.84;82.32;18866.88;5054910;28;20226;-62
2022/11/13 05:51:32;;;;;;;11.93;10.30;;;2.90;99.90;;;-141.84;82.03;18850.63;5055242;28;20222;-62
2022/11/13 05:54:01;;;;;;;10.77;9.63;;;3.00;99.90;;;-141.84;82.30;18872.97;5054821;28;20276;-62
2022/11/13 05:56:32;;;;;;;12.53;10.70;;;2.90;99.90;;;-141.84;83.10;18860.78;5055152;28;20221;-62
2022/11/13 05:59:04;;;;;;;12.53;10.60;;;3.00;99.90;;;-141.84;82.87;18866.88;5054939;28;20209;-63
2022/11/13 06:01:37;;;;;;;12.47;10.57;;;3.00;99.90;;;-141.84;82.81;18858.75;5054614;28;20216;-61
2022/11/13 06:04:07;;;;;;;12.33;10.60;;;3.00;99.90;;;-141.84;82.87;18816.06;5037388;28;20236;-62
2022/11/13 06:06:35;;;;;;;11.47;10.10;;;3.00;99.90;;;-141.84;83.18;18862.81;5034730;28;20243;-61
2022/11/13 06:09:06;;;;;;;18.07;10.87;;;3.00;99.90;;;-141.84;83.11;18850.63;5023326;28;20810;-62
2022/11/13 06:11:34;;;;;;;12.57;11.13;;;3.00;99.90;;;-141.84;83.27;18846.56;5027571;28;20227;-61
2022/11/13 06:14:03;;;;;;;12.90;10.10;;;3.00;99.90;;;-141.84;83.59;18860.78;5034717;28;20203;-61
2022/11/13 06:16:36;;;;;;;13.03;11.00;;;3.00;99.90;;;-141.84;83.75;18834.38;5034940;28;20209;-62
2022/11/13 06:19:08;;;;;;;13.00;10.00;;;3.00;99.90;;;-141.84;83.15;18858.75;5034373;28;20255;-64
2022/11/13 06:21:39;;;;;;;12.53;9.83;;;3.10;99.90;;;-141.84;82.60;18814.03;5034551;28;20222;-63
2022/11/13 06:24:11;;;;;;;12.17;9.93;;;3.10;99.90;;;-141.84;82.68;18868.91;5034453;28;20239;-64
2022/11/13 06:26:40;;;;;;;13.77;10.77;;;3.10;99.90;;;-141.84;82.46;18872.97;5034267;28;20252;-62
2022/11/13 06:29:12;;;;;;;11.73;9.40;;;3.20;99.90;;;-141.84;82.40;18854.69;5034330;28;20231;-62
2022/11/13 06:31:40;;;;;;;12.23;9.47;;;3.20;99.90;;;-141.84;82.45;18842.50;5035030;28;20189;-63
2022/11/13 06:34:08;;;;;;;12.93;10.37;;;3.10;99.90;;;-141.84;81.77;18840.47;5034342;28;20301;-62
2022/11/13 06:36:37;;;;;;;10.50;8.70;;;3.20;99.90;;;-141.84;81.43;18879.06;5034286;28;20232;-61
2022/11/13 06:39:07;;;;;;;13.90;9.93;;;3.10;99.90;;;-141.84;81.42;18860.78;5034226;28;20227;-62
2022/11/13 06:41:38;;;;;;;15.77;10.27;;;3.10;99.90;;;-141.84;80.76;18828.28;5034214;28;20592;-63
2022/11/13 06:44:06;;;;;;;11.87;9.13;;;3.20;99.90;;;-141.84;80.58;18887.19;5034373;28;20242;-63
2022/11/13 06:46:36;;;;;;;11.60;9.40;;;3.20;99.90;;;-141.84;80.86;18879.06;5034084;28;20571;-62
2022/11/13 06:49:04;;;;;;;14.97;9.97;;;3.10;99.90;;;-141.84;81.33;18854.69;5034018;28;20247;-62
2022/11/13 06:51:32;;;;;;;13.07;9.83;;;3.10;99.90;;;-141.84;81.68;18862.81;5046363;28;20701;-62
2022/11/13 06:54:01;;;;;;;11.60;9.43;;;3.20;99.90;;;-141.84;82.22;18854.69;5045300;28;20235;-62
2022/11/13 06:56:29;;;;;;;14.70;9.97;;;3.10;99.90;;;-141.84;82.27;18822.19;5033376;28;20281;-63
2022/11/13 06:58:57;;;;;;;33.73;10.53;;;3.10;99.90;;;-141.84;81.34;18891.25;5033572;28;20202;-63
2022/11/13 07:01:27;;;;;;;13.03;9.83;;;3.10;99.90;;;-141.84;81.22;18848.59;5033401;28;20228;-62
2022/11/13 07:03:56;;;;;;;13.87;9.87;;;3.10;99.90;;;-141.84;82.17;18854.69;5033613;28;20228;-62
2022/11/13 07:06:25;;;;;;;21.13;10.50;;;3.10;99.90;;;-141.84;82.60;18848.59;5033509;28;20833;-63
2022/11/13 07:08:53;;;;;;;21.10;10.40;;;3.20;99.90;;;-141.84;82.65;18872.97;5024127;28;20234;-62
2022/11/13 07:11:23;;;;;;;16.10;9.93;;;3.20;99.90;;;-141.84;82.33;18895.31;5024681;28;20242;-63
2022/11/13 07:13:51;;;;;;;16.17;10.37;;;3.20;99.90;;;-141.84;82.12;18877.03;5034108;28;20260;-62
2022/11/13 07:16:20;;;;;;;12.13;9.90;;;3.30;99.90;;;-141.84;81.73;18864.84;5033147;28;20637;-61
2022/11/13 07:18:53;;;;;;;13.17;10.43;;;3.40;99.90;;;-141.84;82.07;18905.47;5033513;28;20744;-62
2022/11/13 07:21:24;;;;;;;13.93;10.87;;;3.40;99.90;;;-141.84;82.58;18868.91;5033192;28;20233;-61
2022/11/13 07:23:52;;;;;;;13.13;10.57;;;3.40;99.90;;;-141.84;81.97;18891.25;5033334;28;20225;-62
2022/11/13 07:26:20;;;;;;;11.70;9.27;;;3.50;99.90;;;-141.84;81.67;18893.28;5033249;28;20219;-62
2022/11/13 07:28:49;;;;;;;23.70;10.90;;;3.50;99.90;;;-141.84;82.09;18887.19;5033512;28;20229;-62
2022/11/13 07:31:18;;;;;;;13.37;10.97;;;3.50;99.90;;;-141.84;82.35;18893.28;5014249;28;20292;-63
2022/11/13 07:33:49;;;;;;;13.10;10.47;;;3.50;99.90;;;-141.84;82.55;18868.91;5013426;28;20235;-61
2022/11/13 07:36:17;;;;;;;14.27;10.87;;;3.50;99.90;;;-141.84;83.00;18897.34;5013528;28;20237;-62
2022/11/13 07:38:46;;;;;;;17.43;12.17;;;3.70;99.90;;;-141.84;82.76;18899.38;5021989;28;20223;-62
2022/11/13 07:41:14;;;;;;;15.63;10.80;;;3.80;99.90;;;-141.84;82.51;18911.56;5033078;28;20209;-63
2022/11/13 07:43:42;;;;;;;16.63;11.07;;;3.80;99.90;;;-141.84;82.17;18881.09;5033314;28;20206;-62
2022/11/13 07:46:10;;;;;;;13.23;10.13;;;3.90;99.90;;;-141.84;81.58;18899.38;5032720;28;20324;-62
2022/11/13 07:48:39;;;;;;;14.47;11.70;;;3.80;99.90;;;-141.84;82.09;18868.91;5033022;28;20221;-62
2022/11/13 07:51:07;;;;;;;13.33;11.33;;;3.90;99.90;;;-141.84;81.85;18891.25;5041444;28;20232;-62
2022/11/13 07:53:37;;;;;;;19.90;11.80;;;4.00;99.90;;;-141.84;82.26;18901.41;5048143;28;20232;-62
2022/11/13 07:56:08;;;;;;;17.40;11.47;;;4.00;99.90;;;-141.84;81.84;18885.16;5032407;28;20192;-62
2022/11/13 07:58:36;;;;;;;14.30;11.43;;;4.10;99.90;;;-141.84;81.90;18913.59;5033479;28;20193;-62
2022/11/13 08:01:06;;;;;;;14.47;10.53;;;4.20;99.90;;;-141.84;81.83;18905.47;5032663;28;20236;-62
2022/11/13 08:03:34;;;;;;;17.43;11.63;;;4.30;99.90;;;-141.84;81.07;18917.66;5032917;28;20253;-62
2022/11/13 08:06:05;;;;;;;15.03;11.10;;;4.50;99.90;;;-141.84;80.96;18921.75;5032744;28;20242;-63
2022/11/13 08:08:34;;;;;;;13.87;10.70;;;4.40;99.90;;;-141.84;80.99;18944.09;5025605;28;20241;-63
2022/11/13 08:11:09;;;;;;;16.90;12.37;;;4.50;99.90;;;-141.84;80.18;18946.13;5020295;28;20209;-62
2022/11/13 08:13:37;;;;;;;17.23;11.20;;;4.60;99.90;;;-141.84;80.41;18929.88;5032393;28;20191;-63
2022/11/13 08:16:07;;;;;;;16.13;11.03;;;4.70;99.90;;;-141.84;81.05;18942.06;5031733;28;20233;-63
2022/11/13 08:18:36;;;;;;;15.47;11.40;;;4.70;99.90;;;-141.84;80.69;18950.19;5032273;28;20221;-63
2022/11/13 08:21:05;;;;;;;16.27;11.27;;;4.80;99.90;;;-141.84;79.33;18984.72;5032401;28;20242;-62
2022/11/13 08:23:42;;;;;;;14.93;10.73;;;4.90;99.90;;;-141.84;79.35;18968.47;5032503;28;20903;-61
2022/11/13 08:26:11;;;;;;;17.73;10.93;;;5.00;99.90;;;-141.84;78.96;18956.28;5031935;28;20216;-63
2022/11/13 08:28:41;;;;;;;14.83;11.53;;;5.00;99.90;;;-141.84;78.93;18950.19;5033016;28;20226;-65
2022/11/13 08:31:11;;;;;;;15.13;11.27;;;5.00;99.90;;;-141.84;78.47;18978.63;5033039;28;20812;-63
2022/11/13 08:33:42;;;;;;;16.00;11.60;;;5.00;99.90;;;-141.84;77.58;19009.09;5032882;28;20232;-63
2022/11/13 08:36:11;;;;;;;17.53;12.07;;;5.10;99.90;;;-141.84;78.47;18966.44;5032320;28;20233;-63
2022/11/13 08:38:39;;;;;;;16.33;12.27;;;5.00;99.90;;;-141.84;78.87;18990.81;5032230;28;20232;-63
2022/11/13 08:41:08;;;;;;;21.30;12.37;;;5.10;99.90;;;-141.84;78.75;18994.88;5032040;28;20206;-62
2022/11/13 08:43:39;;;;;;;18.57;12.60;;;5.10;99.90;;;-141.84;78.76;19009.09;5032217;28;20205;-60
2022/11/13 08:46:07;;;;;;;14.60;11.23;;;5.10;99.90;;;-141.84;78.78;18984.72;5031894;28;20236;-61
2022/11/13 08:48:36;;;;;;;17.70;12.50;;;5.10;99.90;;;-141.84;78.85;18996.91;5031565;28;20675;-61
2022/11/13 08:51:05;;;;;;;17.93;12.80;;;5.20;99.90;;;-141.84;79.47;19015.19;5040264;28;20233;-61
2022/11/13 08:53:33;;;;;;;18.63;13.30;;;5.30;99.90;;;-141.84;79.54;18978.63;5046113;28;20233;-62
2022/11/13 08:56:01;;;;;;;17.87;12.73;;;5.30;99.90;;;-141.84;78.75;18976.59;5030564;28;20210;-62
2022/11/13 08:58:30;;;;;;;18.57;13.03;;;5.40;99.90;;;-141.84;79.03;19005.03;5031076;28;20268;-60
2022/11/13 09:01:04;;;;;;;19.77;13.40;;;5.40;99.90;;;-141.84;78.29;19019.28;5030760;28;20262;-61
2022/11/13 09:03:34;;;;;;;19.07;13.13;;;5.50;99.90;;;-141.84;78.08;19039.59;5030114;28;20222;-60
2022/11/13 09:06:06;;;;;;;20.13;12.97;;;5.60;99.90;;;-141.84;78.72;19021.31;5030898;28;20953;-61
2022/11/13 09:08:34;;;;;;;19.77;14.23;;;5.60;99.90;;;-141.84;78.85;19035.53;5029954;28;20694;-61
2022/11/13 09:11:04;;;;;;;19.87;14.47;;;5.70;99.90;;;-141.84;77.93;19013.16;5030412;28;20197;-62
2022/11/13 09:13:34;;;;;;;18.50;14.47;;;5.70;99.90;;;-141.84;77.95;19017.25;5032061;28;20187;-61
2022/11/13 09:16:09;;;;;;;21.77;14.20;;;5.70;99.90;;;-141.84;76.98;19049.75;5030092;28;20763;-62
2022/11/13 09:18:37;;;;;;;20.40;14.57;;;5.80;99.90;;;-141.84;76.73;19041.63;5030577;28;20226;-61
2022/11/13 09:21:06;;;;;;;19.53;14.57;;;5.90;99.90;;;-141.84;77.14;19057.88;5030648;28;20229;-63
2022/11/13 09:23:34;;;;;;;21.73;14.60;;;6.00;99.90;;;-141.84;77.29;19053.81;5030482;28;20230;-60
2022/11/13 09:26:03;;;;;;;21.57;15.53;;;6.10;99.90;;;-141.84;75.87;19086.31;5030548;28;20227;-60
2022/11/13 09:28:32;;;;;;;20.13;14.57;;;6.30;99.90;;;-141.84;75.08;19080.22;5030721;28;20206;-60
2022/11/13 09:31:03;;;;;;;20.37;15.37;;;6.30;99.90;;;-141.84;75.54;19106.66;5030132;28;20234;-61
2022/11/13 09:33:33;;;;;;;22.77;16.13;;;6.40;99.90;;;-141.84;75.77;19090.38;5030322;28;20249;-61
2022/11/13 09:36:02;;;;;;;19.90;14.47;;;6.50;99.90;;;-141.84;74.50;19112.75;5030602;28;20233;-60
2022/11/13 09:38:30;;;;;;;17.87;14.10;;;6.70;99.90;;;-141.84;72.42;19163.53;5030097;28;20226;-60
2022/11/13 09:41:08;;;;;;;17.97;13.67;;;6.80;99.90;;;-141.84;71.42;19177.75;5028046;28;20326;-61
2022/11/13 09:43:43;;;;;;;17.53;13.73;;;6.90;99.90;;;-141.84;71.25;19185.88;5030878;28;20210;-61
2022/11/13 09:46:21;;;;;;;18.63;13.80;;;7.00;99.90;;;-141.84;71.00;19181.81;5031132;28;20291;-61
2022/11/13 09:48:58;;;;;;;17.30;13.93;;;7.00;99.90;;;-141.84;70.90;19212.31;5040486;28;20722;-60
2022/11/13 09:51:31;;;;;;;17.23;14.10;;;7.00;99.90;;;-141.84;70.01;19183.84;5050544;28;20233;-61
2022/11/13 09:54:05;;;;;;;18.00;14.07;;;7.20;99.90;;;-141.84;69.42;19232.63;5050005;28;20686;-61
2022/11/13 09:56:39;;;;;;;16.60;13.47;;;7.40;99.90;;;-141.84;68.50;19250.91;5050645;28;20217;-61
2022/11/13 09:59:22;;;;;;;18.30;13.53;;;7.40;99.90;;;-141.84;67.53;19269.22;5050161;28;20178;-61
2022/11/13 10:02:01;;;;;;;19.57;14.80;;;7.50;99.90;;;-141.84;68.30;19220.44;5051005;28;20190;-61
2022/11/13 10:04:55;;;;;;;18.83;14.40;;;7.40;99.90;;;-141.84;68.15;19279.38;5035089;28;20244;-62
2022/11/13 10:07:36;;;;;;;19.80;14.43;;;7.50;99.90;;;-141.84;68.06;19248.88;5030721;28;20356;-61
2022/11/13 10:10:36;;;;;;;18.80;14.87;;;7.60;99.90;;;-141.84;67.35;19257.00;5029774;28;20312;-62
2022/11/13 10:13:11;;;;;;;17.57;13.70;;;7.60;99.90;;;-141.84;67.94;19279.38;5030121;28;20234;-61
2022/11/13 10:15:43;;;;;;;14.93;13.10;;;7.80;99.90;;;-141.84;65.33;19358.63;5033667;28;20237;-60
2022/11/13 10:18:19;;;;;;;15.63;13.73;;;8.10;99.90;;;-141.84;63.22;19403.31;5033971;28;20701;-60
2022/11/13 10:20:54;;;;;;;15.57;13.03;;;8.40;99.90;;;-141.84;63.17;19399.25;5034446;28;20233;-61